CYHD

Dryden Regional Airport

Dryden, Ontario, Canada
METAR CYHD 192000Z AUTO 30004KT 260V330 9SM FEW085 27/08 A3003 RMK SLP173 DENSITY ALT 2800FT
Observed Flight Rules
Jun-19 @ 20:00 UTC (17 minutes ago) Visual Flight Rules
Wind Visibility Clouds
300° at 4 knots 9 miles
  • Few at 8,500' AGL
Temperatures Readings
Current 27°C / 81°F
Dewpoint 8°C / 46°F
Humidity 30%
Altimeter 30.03" Hg
Pressure 1017.3 hPa
Elevation 413
METAR CYHD 192000Z AUTO 30004KT 260V330 9SM FEW085 27/08 A3003 RMK SLP173 DENSITY ALT 2800FT
Observed Flight Rules
Jun-19 @ 20:00 UTC
(17 minutes ago)
VFR
Wind Visibility
300° at 4 knots 9 miles
Clouds
  • Few at 8,500' AGL
Temperature Dewpoint
27°C / 81°F 8°C / 46°F
Humidity Altimeter Pressure
30% 30.03" Hg 1017.3 hPa